Time;durP1;ratioP1;P1;durP2;ratioP2;P2;SDS_P1;SDS_P2;PMS_P1;PMS_P2;Temp;Humidity;BMP_temperature;BMP_pressure;BME280_temperature;BME280_humidity;BME280_pressure;Samples;Min_cycle;Max_cycle;Signal;HPM_P1;HPM_P2
2023/03/24 00:01:44;;;;;;;7.88;3.28;;;;;;;11.27;100.00;-18331.38;5004174;28;20045;-86
2023/03/24 00:04:10;;;;;;;6.93;3.58;;;;;;;11.27;100.00;-18331.38;5009260;28;20107;-86
2023/03/24 00:06:36;;;;;;;9.77;3.22;;;;;;;11.30;100.00;-18332.19;4998366;28;20092;-86
2023/03/24 00:09:02;;;;;;;7.10;3.38;;;;;;;11.27;100.00;-18331.38;5011620;28;20405;-85
2023/03/24 00:11:28;;;;;;;7.30;3.60;;;;;;;11.23;100.00;-18330.28;5005035;28;20052;-85
2023/03/24 00:13:57;;;;;;;7.70;3.53;;;;;;;11.25;100.00;-18330.84;5005045;28;20038;-85
2023/03/24 00:16:23;;;;;;;6.68;3.40;;;;;;;11.26;100.00;-18331.09;5002676;28;20054;-85
2023/03/24 00:18:51;;;;;;;6.32;3.83;;;;;;;11.26;100.00;-18331.09;5011302;28;20045;-84
2023/03/24 00:21:20;;;;;;;4.20;3.17;;;;;;;11.24;100.00;-18330.69;4999961;28;20050;-84
2023/03/24 00:23:48;;;;;;;9.07;4.18;;;;;;;11.27;100.00;-18331.38;5004696;28;20064;-86
2023/03/24 00:26:14;;;;;;;10.75;4.18;;;;;;;11.24;100.00;-18330.69;5011679;28;20049;-85
2023/03/24 00:28:42;;;;;;;5.70;3.53;;;;;;;11.24;100.00;-18330.69;5002725;28;20046;-86
2023/03/24 00:31:08;;;;;;;7.97;4.07;;;;;;;11.21;100.00;-18329.88;4998506;28;20038;-86
2023/03/24 00:33:35;;;;;;;7.05;3.20;;;;;;;11.25;100.00;-18330.84;5006996;28;20042;-86
2023/03/24 00:36:04;;;;;;;7.50;3.80;;;;;;;11.29;100.00;-18332.06;5004429;28;20133;-86
2023/03/24 00:38:30;;;;;;;8.60;5.00;;;;;;;11.29;100.00;-18332.06;5006572;28;20062;-84
2023/03/24 00:40:57;;;;;;;9.05;3.88;;;;;;;11.32;100.00;-18332.75;5011448;28;20038;-85
2023/03/24 00:43:23;;;;;;;5.93;3.95;;;;;;;11.32;100.00;-18332.75;5003172;28;20042;-85
2023/03/24 00:45:51;;;;;;;7.22;3.60;;;;;;;11.33;100.00;-18333.03;5004802;28;20037;-85
2023/03/24 00:48:18;;;;;;;5.53;3.40;;;;;;;11.37;100.00;-18334.00;5004085;28;20494;-85
2023/03/24 00:50:48;;;;;;;7.32;3.83;;;;;;;11.41;100.00;-18335.22;5005044;28;20398;-86
2023/03/24 00:53:14;;;;;;;;;;;;;;;11.41;100.00;-18335.22;5001821;28;20041;-86
2023/03/24 00:55:41;;;;;;;6.63;3.63;;;;;;;11.38;100.00;-18334.41;5006467;28;19925;-86
2023/03/24 00:58:06;;;;;;;8.35;4.40;;;;;;;11.38;100.00;-18334.41;5009127;28;20042;-85
2023/03/24 01:00:32;;;;;;;8.02;4.18;;;;;;;11.37;100.00;-18334.00;5002163;28;20048;-86
2023/03/24 01:02:57;;;;;;;7.85;4.25;;;;;;;11.41;100.00;-18335.09;5020738;28;20950;-86
2023/03/24 01:05:26;;;;;;;5.03;3.40;;;;;;;11.42;100.00;-18335.50;5007471;28;20048;-86
2023/03/24 01:07:55;;;;;;;11.55;3.83;;;;;;;11.44;100.00;-18336.03;5006270;28;20079;-86
2023/03/24 01:10:25;;;;;;;5.05;3.50;;;;;;;11.42;100.00;-18335.50;5005193;28;20469;-86
2023/03/24 01:12:51;;;;;;;4.35;3.50;;;;;;;11.45;100.00;-18336.31;5004687;28;20066;-85
2023/03/24 01:15:18;;;;;;;6.45;3.55;;;;;;;11.47;100.00;-18336.88;5003219;28;20061;-86
2023/03/24 01:17:45;;;;;;;6.32;3.28;;;;;;;11.50;100.00;-18337.69;5005153;28;20042;-86
2023/03/24 01:20:11;;;;;;;6.60;3.40;;;;;;;11.55;100.00;-18338.78;5008183;28;20041;-84
2023/03/24 01:22:39;;;;;;;6.60;3.85;;;;;;;11.58;100.00;-18339.75;5009298;28;20034;-84
2023/03/24 01:25:08;;;;;;;8.57;3.88;;;;;;;11.60;100.00;-18340.31;5004905;28;20041;-86
2023/03/24 01:27:35;;;;;;;6.53;3.95;;;;;;;11.62;100.00;-18340.84;5004276;28;20128;-85
2023/03/24 01:30:00;;;;;;;5.72;3.25;;;;;;;11.59;100.00;-18340.03;5000129;28;20076;-85
2023/03/24 01:32:27;;;;;;;5.55;3.25;;;;;;;11.60;100.00;-18340.16;5000623;28;20070;-86
2023/03/24 01:34:53;;;;;;;6.57;3.95;;;;;;;11.66;100.00;-18341.81;5000146;28;20054;-86
2023/03/24 01:37:18;;;;;;;5.03;3.80;;;;;;;11.70;100.00;-18342.91;4997380;28;20402;-85
2023/03/24 01:39:43;;;;;;;4.28;3.20;;;;;;;11.71;100.00;-18343.19;5005356;28;20034;-85
2023/03/24 01:42:21;;;;;;;8.18;3.90;;;;;;;11.70;100.00;-18342.91;5004386;28;20048;-83
2023/03/24 01:44:48;;;;;;;7.82;3.63;;;;;;;11.69;100.00;-18342.78;4997056;28;20568;-83
2023/03/24 01:47:16;;;;;;;6.20;3.63;;;;;;;11.73;100.00;-18343.72;5004066;28;20099;-84
2023/03/24 01:49:53;;;;;;;7.10;4.10;;;;;;;11.72;100.00;-18343.47;5000072;28;20046;-85
2023/03/24 01:52:35;;;;;;;5.80;3.30;;;;;;;11.74;100.00;-18344.16;5000270;28;20045;-85
2023/03/24 01:55:06;;;;;;;5.32;3.67;;;;;;;11.74;100.00;-18344.00;4983241;28;20049;-83
2023/03/24 01:57:39;;;;;;;4.80;3.17;;;;;;;11.75;100.00;-18344.28;5007412;28;20037;-84
2023/03/24 02:00:13;;;;;;;4.95;3.03;;;;;;;11.77;100.00;-18344.84;5004619;28;20061;-83
2023/03/24 02:02:43;;;;;;;4.57;3.30;;;;;;;11.78;100.00;-18345.09;5005128;28;20040;-84
2023/03/24 02:05:11;;;;;;;5.65;3.50;;;;;;;11.82;100.00;-18346.19;5007688;28;20549;-84
2023/03/24 02:07:45;;;;;;;4.13;2.70;;;;;;;11.82;100.00;-18346.06;5011525;28;20118;-84
2023/03/24 02:10:15;;;;;;;6.28;3.28;;;;;;;11.85;100.00;-18346.88;5002939;28;20034;-84
2023/03/24 02:12:42;;;;;;;6.72;3.08;;;;;;;11.86;100.00;-18347.31;5003576;28;20041;-84
2023/03/24 02:15:09;;;;;;;6.03;3.20;;;;;;;11.87;100.00;-18347.56;5006518;28;20129;-84
2023/03/24 02:17:49;;;;;;;7.50;3.78;;;;;;;11.88;100.00;-18347.84;5001854;28;20041;-84
2023/03/24 02:20:45;;;;;;;5.05;3.92;;;;;;;11.88;100.00;-18347.84;5000179;28;20536;-84
2023/03/24 02:23:48;;;;;;;4.72;2.90;;;;;;;11.87;100.00;-18347.56;5018837;28;20050;-84
2023/03/24 02:26:44;;;;;;;6.57;3.35;;;;;;;11.85;100.00;-18346.88;5017966;28;20045;-85
2023/03/24 02:29:47;;;;;;;5.57;3.45;;;;;;;11.84;100.00;-18346.75;5014762;28;20037;-84
2023/03/24 02:32:40;;;;;;;6.85;3.90;;;;;;;11.80;100.00;-18345.53;5009206;28;20038;-84
2023/03/24 02:35:39;;;;;;;5.57;4.05;;;;;;;11.77;100.00;-18344.84;4980386;28;20046;-84
2023/03/24 02:38:21;;;;;;;5.72;3.63;;;;;;;11.73;100.00;-18343.72;5006403;28;20049;-84
2023/03/24 02:41:01;;;;;;;8.55;3.97;;;;;;;11.74;100.00;-18344.16;5015713;28;20037;-84
2023/03/24 02:44:17;;;;;;;5.30;3.95;;;;;;;11.74;100.00;-18344.00;4996336;28;20095;-85
2023/03/24 02:46:55;;;;;;;6.65;3.95;;;;;;;11.72;100.00;-18343.59;4969324;28;20043;-85
2023/03/24 02:49:29;;;;;;;6.47;4.45;;;;;;;11.72;100.00;-18343.47;4956537;28;20047;-84
2023/03/24 02:52:04;;;;;;;6.38;4.20;;;;;;;11.73;100.00;-18343.72;4994725;28;20116;-84
2023/03/24 02:54:48;;;;;;;7.20;4.88;;;;;;;11.73;100.00;-18343.72;5000692;28;20054;-84
2023/03/24 02:57:42;;;;;;;7.30;4.60;;;;;;;11.74;100.00;-18344.00;4996297;28;20042;-84
2023/03/24 03:00:29;;;;;;;8.70;4.88;;;;;;;11.75;100.00;-18344.28;4985991;28;20035;-84
2023/03/24 03:03:01;;;;;;;8.30;5.22;;;;;;;11.74;100.00;-18344.16;5001606;28;20052;-84
2023/03/24 03:05:35;;;;;;;7.82;4.88;;;;;;;11.79;100.00;-18345.38;5006032;28;20044;-84
2023/03/24 03:08:04;;;;;;;5.97;5.18;;;;;;;11.79;100.00;-18345.38;5012295;28;20398;-84
2023/03/24 03:10:33;;;;;;;;;;;;;;;11.79;100.00;-18345.38;5006307;28;20045;-83
2023/03/24 03:13:05;;;;;;;6.30;4.90;;;;;;;11.75;100.00;-18344.28;4998922;28;19918;-84
2023/03/24 03:15:36;;;;;;;5.93;5.15;;;;;;;11.78;100.00;-18345.09;5007057;28;20115;-84
2023/03/24 03:18:16;;;;;;;6.65;5.43;;;;;;;11.81;100.00;-18345.94;5006701;28;20097;-84
2023/03/24 03:20:49;;;;;;;7.45;5.57;;;;;;;11.84;100.00;-18346.75;5003151;28;20038;-84
2023/03/24 03:23:18;;;;;;;7.80;5.32;;;;;;;11.87;100.00;-18347.56;5005250;28;20046;-83
2023/03/24 03:25:49;;;;;;;7.75;5.25;;;;;;;11.91;100.00;-18348.69;5004206;28;20053;-84
2023/03/24 03:28:22;;;;;;;8.10;5.65;;;;;;;11.92;100.00;-18348.81;5001436;28;20042;-84
2023/03/24 03:30:55;;;;;;;8.23;5.32;;;;;;;11.92;100.00;-18348.81;5003744;28;20061;-84
2023/03/24 03:33:25;;;;;;;6.82;5.65;;;;;;;11.91;100.00;-18348.53;5004522;28;20141;-83
2023/03/24 03:36:21;;;;;;;7.75;5.70;;;;;;;11.91;100.00;-18348.53;5002778;28;20034;-83
2023/03/24 03:39:14;;;;;;;7.22;5.60;;;;;;;11.98;100.00;-18350.31;4998607;28;20505;-84
2023/03/24 03:41:42;;;;;;;6.38;5.47;;;;;;;11.98;100.00;-18350.47;4998794;28;20441;-84
2023/03/24 03:44:07;;;;;;;8.48;5.75;;;;;;;11.95;100.00;-18349.78;4992478;28;20458;-83
2023/03/24 03:46:35;;;;;;;9.10;5.97;;;;;;;12.00;100.00;-18350.88;5002895;28;20084;-83
2023/03/24 03:49:01;;;;;;;8.27;6.57;;;;;;;12.01;100.00;-18351.16;5016928;28;20046;-83
2023/03/24 03:51:26;;;;;;;6.90;6.15;;;;;;;12.04;100.00;-18351.97;5008846;28;20041;-83
2023/03/24 03:53:57;;;;;;;9.25;5.95;;;;;;;12.00;100.00;-18350.88;5013675;28;20041;-84
2023/03/24 03:56:26;;;;;;;6.53;5.47;;;;;;;12.01;100.00;-18351.16;5014133;28;20484;-84
2023/03/24 03:58:52;;;;;;;6.80;5.85;;;;;;;12.03;100.00;-18351.69;5016537;28;20048;-84
2023/03/24 04:01:22;;;;;;;7.55;6.15;;;;;;;12.01;100.00;-18351.16;5016323;28;20120;-84
2023/03/24 04:04:01;;;;;;;8.13;5.68;;;;;;;12.00;100.00;-18351.00;5016299;28;20205;-84
2023/03/24 04:06:35;;;;;;;7.13;5.97;;;;;;;12.04;100.00;-18351.97;5015053;28;20042;-84
2023/03/24 04:09:03;;;;;;;6.57;5.75;;;;;;;12.05;100.00;-18352.38;5024023;28;20060;-85
2023/03/24 04:11:50;;;;;;;7.25;5.72;;;;;;;12.07;100.00;-18352.94;5008676;28;20057;-84
2023/03/24 04:14:30;;;;;;;7.10;5.47;;;;;;;12.06;100.00;-18352.66;5024513;28;20423;-84
2023/03/24 04:17:16;;;;;;;6.38;5.38;;;;;;;12.06;100.00;-18352.53;5027715;28;20038;-83
2023/03/24 04:19:54;;;;;;;6.57;5.60;;;;;;;12.05;100.00;-18352.25;5001454;28;20050;-84
2023/03/24 04:22:22;;;;;;;7.70;6.28;;;;;;;12.02;100.00;-18351.56;5004207;28;20034;-85
2023/03/24 04:25:00;;;;;;;5.00;4.07;;;;;;;11.84;100.00;-18346.63;5007047;28;20045;-85
2023/03/24 04:27:45;;;;;;;3.60;2.42;;;;;;;11.49;100.00;-18337.41;4999844;28;20046;-84
2023/03/24 04:30:32;;;;;;;2.95;1.80;;;;;;;11.41;100.00;-18335.09;5012202;28;20104;-84
2023/03/24 04:33:06;;;;;;;3.20;1.27;;;;;;;11.25;100.00;-18330.84;5014085;28;20045;-84
2023/03/24 04:35:39;;;;;;;4.60;1.30;;;;;;;11.19;100.00;-18329.19;5006682;28;20054;-84
2023/03/24 04:38:21;;;;;;;3.83;0.95;;;;;;;11.12;100.00;-18327.41;5012074;28;20058;-84
2023/03/24 04:40:50;;;;;;;3.50;0.90;;;;;;;11.04;100.00;-18325.34;4999660;28;20046;-84
2023/03/24 04:43:20;;;;;;;3.53;1.70;;;;;;;11.01;100.00;-18324.50;5002879;28;20037;-84
2023/03/24 04:45:48;;;;;;;3.70;1.17;;;;;;;10.94;100.00;-18322.59;5011624;28;20109;-84
2023/03/24 04:48:16;;;;;;;3.33;0.82;;;;;;;10.92;100.00;-18322.03;5007731;28;20056;-84
2023/03/24 04:50:51;;;;;;;1.88;0.95;;;;;;;10.82;100.00;-18319.44;5001176;28;20505;-84
2023/03/24 04:53:17;;;;;;;3.40;1.15;;;;;;;10.75;100.00;-18317.38;5002159;28;20050;-85
2023/03/24 04:55:48;;;;;;;4.20;1.17;;;;;;;10.72;100.00;-18316.69;5008819;28;20034;-84
2023/03/24 04:58:17;;;;;;;4.47;1.20;;;;;;;10.69;100.00;-18315.72;5026737;28;20053;-84
2023/03/24 05:00:42;;;;;;;5.32;1.30;;;;;;;10.65;100.00;-18314.63;5011458;28;20061;-83
2023/03/24 05:03:12;;;;;;;3.70;1.25;;;;;;;10.56;100.00;-18312.44;5009640;28;20128;-84
2023/03/24 05:05:42;;;;;;;2.50;1.08;;;;;;;10.53;100.00;-18311.59;5006202;28;20647;-84
2023/03/24 05:08:07;;;;;;;;;;;;;;;10.57;100.00;-18312.69;5008866;28;20048;-83
2023/03/24 05:10:33;;;;;;;3.72;1.20;;;;;;;10.43;100.00;-18308.72;5018478;28;19917;-84
2023/03/24 05:12:59;;;;;;;4.25;1.45;;;;;;;10.42;100.00;-18308.56;4999889;28;20037;-84
2023/03/24 05:15:24;;;;;;;3.28;1.50;;;;;;;10.33;100.00;-18306.09;5009781;28;20069;-84
2023/03/24 05:17:51;;;;;;;4.75;1.33;;;;;;;10.29;100.00;-18305.13;5008813;28;20129;-84
2023/03/24 05:20:17;;;;;;;2.97;1.38;;;;;;;10.22;100.00;-18303.06;5005400;28;20995;-84
2023/03/24 05:22:43;;;;;;;4.88;1.65;;;;;;;10.15;100.00;-18301.28;5007563;28;20037;-83
2023/03/24 05:25:09;;;;;;;4.20;1.83;;;;;;;10.14;100.00;-18301.00;5001664;28;20037;-84
2023/03/24 05:27:34;;;;;;;6.47;1.70;;;;;;;10.08;100.00;-18299.38;5005895;28;20046;-83
2023/03/24 05:29:59;;;;;;;8.07;2.10;;;;;;;10.08;100.00;-18299.38;5009846;28;20050;-84
2023/03/24 05:32:25;;;;;;;6.22;1.38;;;;;;;10.11;100.00;-18300.19;5000562;28;20066;-85
2023/03/24 05:34:50;;;;;;;9.25;1.73;;;;;;;10.07;100.00;-18299.09;5006114;28;20046;-85
2023/03/24 05:37:16;;;;;;;5.70;1.77;;;;;;;10.13;100.00;-18300.75;5005127;28;20433;-85
2023/03/24 05:39:42;;;;;;;9.88;2.97;;;;;;;10.13;100.00;-18300.88;4999616;28;20683;-85
2023/03/24 05:42:08;;;;;;;6.55;2.53;;;;;;;10.10;100.00;-18299.91;5002031;28;20124;-85
2023/03/24 05:44:34;;;;;;;11.07;2.90;;;;;;;10.12;100.00;-18300.59;5004987;28;20417;-85
2023/03/24 05:47:00;;;;;;;10.48;2.70;;;;;;;10.09;100.00;-18299.78;5013579;28;20050;-84
2023/03/24 05:49:25;;;;;;;6.55;2.50;;;;;;;10.06;100.00;-18298.94;5009412;28;20045;-85
2023/03/24 05:51:51;;;;;;;9.05;3.08;;;;;;;10.06;100.00;-18298.81;5002033;28;20050;-85
2023/03/24 05:54:16;;;;;;;9.07;2.60;;;;;;;9.99;100.00;-18296.88;5002151;28;20053;-85
2023/03/24 05:56:41;;;;;;;11.38;2.95;;;;;;;9.98;100.00;-18296.75;4998869;28;20037;-85
2023/03/24 05:59:07;;;;;;;8.73;2.38;;;;;;;9.97;100.00;-18296.34;4999430;28;20648;-85
2023/03/24 06:01:32;;;;;;;12.10;3.13;;;;;;;9.99;100.00;-18296.88;5003313;28;20485;-85
2023/03/24 06:03:57;;;;;;;9.98;2.50;;;;;;;9.99;100.00;-18296.88;5005856;28;20054;-85
2023/03/24 06:06:23;;;;;;;12.77;2.83;;;;;;;9.99;100.00;-18297.03;4991361;28;20129;-85
2023/03/24 06:08:49;;;;;;;14.70;3.33;;;;;;;9.99;100.00;-18297.03;4996721;28;20096;-84
2023/03/24 06:11:15;;;;;;;16.35;3.03;;;;;;;9.98;100.00;-18296.63;5007815;28;20052;-85
2023/03/24 06:13:40;;;;;;;11.55;2.72;;;;;;;9.98;100.00;-18296.75;4997299;28;20126;-85
2023/03/24 06:16:06;;;;;;;8.80;2.75;;;;;;;9.98;100.00;-18296.75;4999901;28;20117;-85
2023/03/24 06:18:32;;;;;;;12.95;2.75;;;;;;;9.97;100.00;-18296.47;4999348;28;20056;-84
2023/03/24 06:20:59;;;;;;;9.10;2.30;;;;;;;9.95;100.00;-18295.94;5004037;28;20046;-84
2023/03/24 06:23:26;;;;;;;11.43;3.65;;;;;;;9.93;100.00;-18295.50;4997322;28;20050;-84
2023/03/24 06:25:57;;;;;;;12.80;3.72;;;;;;;9.91;100.00;-18294.81;5003715;28;20052;-85
2023/03/24 06:28:25;;;;;;;11.70;3.25;;;;;;;9.96;100.00;-18296.06;5004924;28;20038;-85
2023/03/24 06:30:50;;;;;;;10.02;3.85;;;;;;;9.96;100.00;-18296.19;5005470;28;20042;-84
2023/03/24 06:33:16;;;;;;;14.45;4.20;;;;;;;10.01;100.00;-18297.44;5002388;28;20521;-84
2023/03/24 06:35:42;;;;;;;11.23;3.97;;;;;;;10.01;100.00;-18297.44;5005061;28;20053;-84
2023/03/24 06:38:07;;;;;;;11.82;4.55;;;;;;;10.01;100.00;-18297.56;5005029;28;20034;-84
2023/03/24 06:40:33;;;;;;;12.68;3.97;;;;;;;9.97;100.00;-18296.34;5004542;28;20065;-84
2023/03/24 06:42:59;;;;;;;13.18;4.40;;;;;;;9.93;100.00;-18295.38;5005479;28;20041;-84
2023/03/24 06:45:25;;;;;;;9.55;4.63;;;;;;;9.93;100.00;-18295.38;5002248;28;20042;-84
2023/03/24 06:47:56;;;;;;;12.52;4.68;;;;;;;9.94;100.00;-18295.66;5000909;28;20042;-84
2023/03/24 06:50:25;;;;;;;11.38;4.20;;;;;;;9.98;100.00;-18296.75;5013693;28;20069;-84
2023/03/24 06:52:51;;;;;;;10.88;4.72;;;;;;;9.99;100.00;-18296.88;4998813;28;20059;-85
2023/03/24 06:55:17;;;;;;;10.85;3.53;;;;;;;10.02;100.00;-18297.84;5013911;28;20034;-85
2023/03/24 06:57:43;;;;;;;12.70;4.90;;;;;;;10.04;100.00;-18298.41;5006763;28;20145;-84
2023/03/24 07:00:10;;;;;;;12.57;3.50;;;;;;;10.05;100.00;-18298.53;5001983;28;20061;-85
2023/03/24 07:02:36;;;;;;;11.07;4.78;;;;;;;10.08;100.00;-18299.50;5007086;28;20405;-84
2023/03/24 07:05:06;;;;;;;12.45;4.70;;;;;;;10.10;100.00;-18300.06;5002065;28;20056;-85
2023/03/24 07:07:32;;;;;;;12.35;5.05;;;;;;;10.11;100.00;-18300.19;5002363;28;20112;-84
2023/03/24 07:09:58;;;;;;;13.35;4.80;;;;;;;10.13;100.00;-18300.75;4999521;28;20042;-84
2023/03/24 07:12:24;;;;;;;11.63;3.85;;;;;;;10.16;100.00;-18301.56;4994371;28;20030;-84
2023/03/24 07:14:49;;;;;;;9.82;3.75;;;;;;;10.20;100.00;-18302.66;5015987;28;20034;-84
2023/03/24 07:17:15;;;;;;;12.57;4.45;;;;;;;10.26;100.00;-18304.16;4999603;28;20050;-84
2023/03/24 07:19:40;;;;;;;10.68;4.18;;;;;;;10.28;100.00;-18304.88;5004067;28;20044;-83
2023/03/24 07:22:07;;;;;;;8.85;4.47;;;;;;;10.27;100.00;-18304.59;5008565;28;20096;-84
2023/03/24 07:24:34;;;;;;;10.40;4.50;;;;;;;10.29;100.00;-18305.00;5003892;28;20049;-84
2023/03/24 07:26:59;;;;;;;9.80;3.80;;;;;;;10.29;100.00;-18305.13;5000837;28;20042;-84
2023/03/24 07:29:25;;;;;;;16.35;4.63;;;;;;;10.26;100.00;-18304.16;5022870;28;20527;-84
2023/03/24 07:31:52;;;;;;;10.93;3.97;;;;;;;10.26;100.00;-18304.31;5001370;28;20069;-85
2023/03/24 07:34:17;;;;;;;7.88;3.65;;;;;;;10.32;100.00;-18305.81;5009766;28;20108;-84
2023/03/24 07:36:42;;;;;;;11.57;3.88;;;;;;;10.38;100.00;-18307.47;5005716;28;20045;-84
2023/03/24 07:39:08;;;;;;;10.90;3.58;;;;;;;10.37;100.00;-18307.34;5010292;28;20046;-84
2023/03/24 07:41:33;;;;;;;13.18;4.30;;;;;;;10.42;100.00;-18308.44;5007719;28;20052;-83
2023/03/24 07:43:59;;;;;;;15.55;4.78;;;;;;;10.43;100.00;-18308.84;5013219;28;20049;-85
2023/03/24 07:46:24;;;;;;;9.75;3.72;;;;;;;10.46;100.00;-18309.53;5027954;28;20041;-84
2023/03/24 07:48:51;;;;;;;9.63;3.72;;;;;;;10.51;100.00;-18311.06;5044864;28;20568;-83
2023/03/24 07:51:18;;;;;;;13.70;4.55;;;;;;;10.54;100.00;-18311.88;5003236;28;20033;-84
2023/03/24 07:53:46;;;;;;;13.43;3.88;;;;;;;10.58;100.00;-18312.84;5013423;28;20444;-83
2023/03/24 07:56:12;;;;;;;11.73;4.30;;;;;;;10.64;100.00;-18314.34;5018159;28;20033;-84
2023/03/24 07:58:38;;;;;;;10.52;4.38;;;;;;;10.72;100.00;-18316.53;5011223;28;20165;-84
2023/03/24 08:01:06;;;;;;;12.70;4.43;;;;;;;10.67;100.00;-18315.31;5013297;28;20120;-84
2023/03/24 08:03:32;;;;;;;10.80;3.70;;;;;;;10.65;100.00;-18314.75;5030236;28;20521;-85
2023/03/24 08:05:58;;;;;;;14.45;4.82;;;;;;;10.71;100.00;-18316.28;5009981;28;20038;-84
2023/03/24 08:08:24;;;;;;;11.77;3.60;;;;;;;10.68;100.00;-18315.59;5016582;28;20068;-84
2023/03/24 08:10:49;;;;;;;11.82;5.05;;;;;;;10.70;100.00;-18316.00;5012561;28;20537;-84
2023/03/24 08:13:15;;;;;;;9.43;4.30;;;;;;;10.73;100.00;-18316.97;5019763;28;20042;-83
2023/03/24 08:15:41;;;;;;;12.73;5.20;;;;;;;10.76;100.00;-18317.63;5002522;28;20033;-84
2023/03/24 08:18:07;;;;;;;12.73;3.90;;;;;;;10.85;100.00;-18320.13;5005459;28;20049;-84
2023/03/24 08:20:32;;;;;;;12.07;3.97;;;;;;;10.91;100.00;-18321.63;5016818;28;20045;-84
2023/03/24 08:22:59;;;;;;;11.50;4.35;;;;;;;10.92;100.00;-18322.03;5014416;28;20096;-84
2023/03/24 08:25:26;;;;;;;11.05;3.53;;;;;;;10.91;100.00;-18321.75;5009614;28;20512;-83
2023/03/24 08:27:52;;;;;;;16.05;4.60;;;;;;;10.96;100.00;-18323.00;5016023;28;20087;-84
2023/03/24 08:30:23;;;;;;;12.77;3.92;;;;;;;10.95;100.00;-18322.72;5004785;28;20066;-83
2023/03/24 08:32:51;;;;;;;10.90;4.00;;;;;;;10.99;100.00;-18323.81;5008649;28;20570;-84
2023/03/24 08:35:26;;;;;;;13.73;4.03;;;;;;;10.94;100.00;-18322.44;5001085;28;20188;-83
2023/03/24 08:37:51;;;;;;;10.27;3.45;;;;;;;10.91;100.00;-18321.75;5003857;28;20103;-84
2023/03/24 08:40:22;;;;;;;11.35;3.50;;;;;;;10.92;100.00;-18322.03;5005538;28;20049;-84
2023/03/24 08:42:50;;;;;;;10.90;3.30;;;;;;;10.97;100.00;-18323.41;4999877;28;20066;-84
2023/03/24 08:45:19;;;;;;;12.70;4.23;;;;;;;11.05;100.00;-18325.59;5009352;28;20042;-84
2023/03/24 08:47:45;;;;;;;10.15;4.13;;;;;;;11.11;100.00;-18326.97;5010173;28;20128;-84
2023/03/24 08:50:12;;;;;;;13.93;3.92;;;;;;;11.13;100.00;-18327.66;5004371;28;20591;-84
2023/03/24 08:52:37;;;;;;;11.27;3.95;;;;;;;11.20;100.00;-18329.47;5006676;28;20061;-84
2023/03/24 08:55:03;;;;;;;10.82;2.97;;;;;;;11.33;100.00;-18332.88;5004175;28;20117;-84
2023/03/24 08:57:30;;;;;;;18.13;5.28;;;;;;;11.43;100.00;-18335.78;5006639;28;20057;-84
2023/03/24 08:59:55;;;;;;;10.25;3.05;;;;;;;11.50;100.00;-18337.56;5010109;28;20038;-84
2023/03/24 09:02:21;;;;;;;9.02;2.80;;;;;;;11.41;100.00;-18335.22;5004317;28;20568;-84
2023/03/24 09:04:48;;;;;;;12.95;2.97;;;;;;;11.48;100.00;-18337.00;5003253;28;20061;-84
2023/03/24 09:07:14;;;;;;;7.97;2.63;;;;;;;11.54;100.00;-18338.66;5008801;28;20070;-84
2023/03/24 09:09:40;;;;;;;10.40;3.17;;;;;;;11.63;100.00;-18341.00;5007373;28;20041;-83
2023/03/24 09:12:05;;;;;;;10.07;2.72;;;;;;;11.63;100.00;-18341.00;5010485;28;20037;-83
2023/03/24 09:14:31;;;;;;;9.93;2.58;;;;;;;11.59;100.00;-18340.03;5012002;28;20189;-84
2023/03/24 09:16:56;;;;;;;9.80;3.45;;;;;;;11.66;100.00;-18341.81;5005953;28;20065;-84
2023/03/24 09:19:22;;;;;;;11.32;3.35;;;;;;;11.81;100.00;-18345.94;5009347;28;20405;-84
2023/03/24 09:21:47;;;;;;;8.90;2.53;;;;;;;11.83;100.00;-18346.47;5008932;28;20038;-83
2023/03/24 09:24:13;;;;;;;7.80;2.95;;;;;;;11.85;100.00;-18347.03;5011627;28;20041;-84
2023/03/24 09:26:39;;;;;;;14.43;2.83;;;;;;;11.78;100.00;-18345.09;5002860;28;20042;-84
2023/03/24 09:29:05;;;;;;;10.13;2.90;;;;;;;11.71;100.00;-18343.31;5004231;28;20046;-84
2023/03/24 09:31:30;;;;;;;10.77;3.15;;;;;;;11.64;100.00;-18341.41;5008936;28;20053;-84
2023/03/24 09:33:56;;;;;;;9.77;3.30;;;;;;;11.60;100.00;-18340.31;5001172;28;20177;-84
2023/03/24 09:36:21;;;;;;;11.88;3.15;;;;;;;11.66;100.00;-18341.81;5005210;28;20421;-84
2023/03/24 09:38:47;;;;;;;11.10;3.65;;;;;;;11.74;100.00;-18344.16;5003552;28;20398;-83
2023/03/24 09:41:25;;;;;;;10.18;2.63;;;;;;;11.95;100.00;-18349.78;5008202;28;20034;-84
2023/03/24 09:43:57;;;;;;;10.53;2.60;;;;;;;12.09;100.00;-18353.47;5004853;28;20050;-84
2023/03/24 09:46:33;;;;;;;10.93;2.60;;;;;;;12.19;100.00;-18356.09;4997405;28;20327;-84
2023/03/24 09:48:58;;;;;;;10.18;2.63;;;;;;;12.17;100.00;-18355.53;5006774;28;20038;-84
2023/03/24 09:51:30;;;;;;;15.30;3.08;;;;;;;12.14;100.00;-18354.72;4995964;28;20045;-84
2023/03/24 09:54:10;;;;;;;11.25;2.72;;;;;;;12.05;100.00;-18352.38;5004942;28;20621;-84
2023/03/24 09:56:38;;;;;;;14.57;2.95;;;;;;;12.08;100.00;-18353.19;5007544;28;20046;-84
2023/03/24 09:59:03;;;;;;;9.85;2.53;;;;;;;12.16;100.00;-18355.25;5005386;28;20044;-84
2023/03/24 10:01:29;;;;;;;7.43;2.20;;;;;;;12.28;100.00;-18358.41;5007782;28;20049;-84
2023/03/24 10:03:59;;;;;;;11.07;2.80;;;;;;;12.39;100.00;-18361.44;5015014;28;20498;-85
2023/03/24 10:06:29;;;;;;;7.47;2.47;;;;;;;12.43;100.00;-18362.53;5002570;28;20126;-84
2023/03/24 10:09:21;;;;;;;9.25;2.50;;;;;;;12.35;100.00;-18360.34;5005851;28;20073;-83
2023/03/24 10:11:52;;;;;;;7.05;2.95;;;;;;;12.26;100.00;-18357.88;4991384;28;20046;-83
2023/03/24 10:14:24;;;;;;;8.02;3.00;;;;;;;12.27;100.00;-18358.16;5022732;28;20533;-84
2023/03/24 10:16:55;;;;;;;12.82;3.17;;;;;;;12.26;100.00;-18357.88;5011317;28;20128;-84
2023/03/24 10:19:47;;;;;;;11.23;3.00;;;;;;;12.25;100.00;-18357.72;5006093;28;20139;-83
2023/03/24 10:22:57;;;;;;;6.10;2.30;;;;;;;12.23;100.00;-18357.19;4989798;28;20185;-84
2023/03/24 10:25:34;;;;;;;6.60;2.10;;;;;;;12.10;100.00;-18353.63;5000471;28;20050;-83
2023/03/24 10:28:22;;;;;;;12.35;3.08;;;;;;;12.04;100.00;-18351.97;5008774;28;20104;-84
2023/03/24 10:30:50;;;;;;;10.43;1.92;;;;;;;12.05;100.00;-18352.25;5003462;28;20450;-84
2023/03/24 10:33:16;;;;;;;9.55;2.53;;;;;;;12.05;100.00;-18352.25;5007938;28;20453;-84
2023/03/24 10:35:50;;;;;;;9.63;2.78;;;;;;;12.04;100.00;-18352.09;5005666;28;20072;-84
2023/03/24 10:38:19;;;;;;;9.75;2.65;;;;;;;12.01;100.00;-18351.16;5012886;28;20076;-83
2023/03/24 10:40:46;;;;;;;13.70;3.20;;;;;;;12.02;100.00;-18351.41;5003761;28;20120;-83
2023/03/24 10:43:12;;;;;;;8.70;2.20;;;;;;;11.96;100.00;-18349.91;5002253;28;20070;-83
2023/03/24 10:45:42;;;;;;;8.93;2.92;;;;;;;11.93;100.00;-18349.09;5001850;28;20105;-83
2023/03/24 10:48:11;;;;;;;12.93;2.35;;;;;;;11.95;100.00;-18349.78;5011510;28;20041;-83
2023/03/24 10:50:42;;;;;;;10.45;2.95;;;;;;;11.91;100.00;-18348.69;5001367;28;20144;-83
2023/03/24 10:53:18;;;;;;;11.38;2.55;;;;;;;11.92;100.00;-18348.94;5025293;28;20680;-82
2023/03/24 10:55:44;;;;;;;5.38;2.30;;;;;;;12.00;100.00;-18351.00;5006205;28;20048;-84
2023/03/24 10:58:20;;;;;;;9.18;2.72;;;;;;;12.15;100.00;-18355.13;5004711;28;20042;-83
2023/03/24 11:00:46;;;;;;;7.80;2.42;;;;;;;12.22;100.00;-18356.78;5004106;28;20038;-83
2023/03/24 11:03:16;;;;;;;9.77;2.75;;;;;;;12.26;100.00;-18357.88;5007629;28;20054;-84
2023/03/24 11:05:43;;;;;;;10.50;3.13;;;;;;;12.30;100.00;-18359.09;5000307;28;20400;-83
2023/03/24 11:08:33;;;;;;;7.95;2.70;;;;;;;12.32;100.00;-18359.66;5009222;28;20068;-83
2023/03/24 11:10:58;;;;;;;7.82;2.75;;;;;;;12.25;100.00;-18357.72;5006242;28;20775;-83
2023/03/24 11:13:32;;;;;;;8.25;2.35;;;;;;;12.34;100.00;-18360.19;5001187;28;20042;-82
2023/03/24 11:16:00;;;;;;;8.77;2.35;;;;;;;12.25;100.00;-18357.59;5011659;28;20065;-83
2023/03/24 11:18:26;;;;;;;8.85;3.00;;;;;;;12.26;100.00;-18358.00;5015414;28;20171;-83
2023/03/24 11:20:56;;;;;;;6.85;2.47;;;;;;;12.28;100.00;-18358.56;5000429;28;20050;-83
2023/03/24 11:23:30;;;;;;;7.15;2.63;;;;;;;12.19;100.00;-18356.09;5006628;28;20049;-83
2023/03/24 11:26:04;;;;;;;10.02;3.15;;;;;;;12.11;100.00;-18353.88;4999496;28;20038;-82
2023/03/24 11:28:36;;;;;;;9.07;3.13;;;;;;;12.00;100.00;-18351.00;4999077;28;20042;-83
2023/03/24 11:31:07;;;;;;;7.53;1.90;;;;;;;11.86;100.00;-18347.31;5028751;28;20111;-83